sensor_id;sensor_type;location;lat;lon;timestamp;P1;durP1;ratioP1;P2;durP2;ratioP2
46589;SDS011;32313;48.722;9.362;2023-04-24T00:00:00;5.53;;;5.03;;
46589;SDS011;32313;48.722;9.362;2023-04-24T00:02:30;4.97;;;4.57;;
46589;SDS011;32313;48.722;9.362;2023-04-24T00:04:56;5.70;;;4.33;;
46589;SDS011;32313;48.722;9.362;2023-04-24T00:07:22;4.10;;;3.70;;
46589;SDS011;32313;48.722;9.362;2023-04-24T00:09:48;4.70;;;4.30;;
46589;SDS011;32313;48.722;9.362;2023-04-24T00:12:13;4.50;;;4.20;;
46589;SDS011;32313;48.722;9.362;2023-04-24T00:14:39;4.73;;;4.43;;
46589;SDS011;32313;48.722;9.362;2023-04-24T00:17:05;4.77;;;4.27;;
46589;SDS011;32313;48.722;9.362;2023-04-24T00:19:31;4.60;;;4.20;;
46589;SDS011;32313;48.722;9.362;2023-04-24T00:21:56;5.30;;;4.80;;
46589;SDS011;32313;48.722;9.362;2023-04-24T00:24:22;4.77;;;4.37;;
46589;SDS011;32313;48.722;9.362;2023-04-24T00:26:47;5.30;;;4.83;;
46589;SDS011;32313;48.722;9.362;2023-04-24T00:29:14;4.90;;;4.23;;
46589;SDS011;32313;48.722;9.362;2023-04-24T00:31:40;5.67;;;5.20;;
46589;SDS011;32313;48.722;9.362;2023-04-24T00:34:05;5.57;;;5.00;;
46589;SDS011;32313;48.722;9.362;2023-04-24T00:36:31;5.83;;;5.20;;
46589;SDS011;32313;48.722;9.362;2023-04-24T00:38:57;5.30;;;4.80;;
46589;SDS011;32313;48.722;9.362;2023-04-24T00:41:24;4.40;;;4.10;;
46589;SDS011;32313;48.722;9.362;2023-04-24T00:43:51;5.40;;;4.90;;
46589;SDS011;32313;48.722;9.362;2023-04-24T00:46:17;5.30;;;4.20;;
46589;SDS011;32313;48.722;9.362;2023-04-24T00:48:43;5.00;;;4.67;;
46589;SDS011;32313;48.722;9.362;2023-04-24T00:51:09;5.43;;;4.23;;
46589;SDS011;32313;48.722;9.362;2023-04-24T00:53:35;5.43;;;4.93;;
46589;SDS011;32313;48.722;9.362;2023-04-24T00:56:01;4.40;;;4.00;;
46589;SDS011;32313;48.722;9.362;2023-04-24T00:58:27;4.57;;;4.13;;
46589;SDS011;32313;48.722;9.362;2023-04-24T01:00:54;4.73;;;4.20;;
46589;SDS011;32313;48.722;9.362;2023-04-24T01:03:24;4.20;;;3.90;;
46589;SDS011;32313;48.722;9.362;2023-04-24T01:05:54;4.90;;;4.40;;
46589;SDS011;32313;48.722;9.362;2023-04-24T01:08:20;4.20;;;3.90;;
46589;SDS011;32313;48.722;9.362;2023-04-24T01:10:53;4.30;;;4.00;;
46589;SDS011;32313;48.722;9.362;2023-04-24T01:13:19;5.47;;;5.00;;
46589;SDS011;32313;48.722;9.362;2023-04-24T01:15:46;4.33;;;4.03;;
46589;SDS011;32313;48.722;9.362;2023-04-24T01:18:12;5.43;;;3.60;;
46589;SDS011;32313;48.722;9.362;2023-04-24T01:20:41;4.60;;;4.30;;
46589;SDS011;32313;48.722;9.362;2023-04-24T01:23:09;4.80;;;4.33;;
46589;SDS011;32313;48.722;9.362;2023-04-24T01:25:35;4.57;;;4.17;;
46589;SDS011;32313;48.722;9.362;2023-04-24T01:28:02;4.17;;;3.90;;
46589;SDS011;32313;48.722;9.362;2023-04-24T01:30:28;4.20;;;4.00;;
46589;SDS011;32313;48.722;9.362;2023-04-24T01:32:56;4.30;;;4.00;;
46589;SDS011;32313;48.722;9.362;2023-04-24T01:35:21;3.80;;;3.60;;
46589;SDS011;32313;48.722;9.362;2023-04-24T01:37:48;3.20;;;3.00;;
46589;SDS011;32313;48.722;9.362;2023-04-24T01:40:14;3.77;;;3.40;;
46589;SDS011;32313;48.722;9.362;2023-04-24T01:42:40;3.97;;;3.67;;
46589;SDS011;32313;48.722;9.362;2023-04-24T01:45:07;3.87;;;3.47;;
46589;SDS011;32313;48.722;9.362;2023-04-24T01:47:35;3.80;;;3.60;;
46589;SDS011;32313;48.722;9.362;2023-04-24T01:50:01;3.70;;;3.40;;
46589;SDS011;32313;48.722;9.362;2023-04-24T01:52:27;3.90;;;3.60;;
46589;SDS011;32313;48.722;9.362;2023-04-24T01:54:56;3.87;;;3.60;;
46589;SDS011;32313;48.722;9.362;2023-04-24T01:57:24;4.73;;;4.13;;
46589;SDS011;32313;48.722;9.362;2023-04-24T01:59:50;4.67;;;4.37;;
46589;SDS011;32313;48.722;9.362;2023-04-24T02:02:16;3.90;;;3.70;;
46589;SDS011;32313;48.722;9.362;2023-04-24T02:04:42;4.43;;;4.03;;
46589;SDS011;32313;48.722;9.362;2023-04-24T02:07:08;4.27;;;3.97;;
46589;SDS011;32313;48.722;9.362;2023-04-24T02:09:34;5.40;;;4.67;;
46589;SDS011;32313;48.722;9.362;2023-04-24T02:11:59;4.67;;;4.00;;
46589;SDS011;32313;48.722;9.362;2023-04-24T02:14:25;3.40;;;3.20;;
46589;SDS011;32313;48.722;9.362;2023-04-24T02:16:51;5.17;;;4.57;;
46589;SDS011;32313;48.722;9.362;2023-04-24T02:19:18;4.40;;;3.93;;
46589;SDS011;32313;48.722;9.362;2023-04-24T02:21:44;4.80;;;4.50;;
46589;SDS011;32313;48.722;9.362;2023-04-24T02:24:09;4.83;;;4.40;;
46589;SDS011;32313;48.722;9.362;2023-04-24T02:26:35;4.27;;;3.73;;
46589;SDS011;32313;48.722;9.362;2023-04-24T02:29:01;4.67;;;4.37;;
46589;SDS011;32313;48.722;9.362;2023-04-24T02:31:27;4.37;;;4.07;;
46589;SDS011;32313;48.722;9.362;2023-04-24T02:33:52;3.83;;;3.47;;
46589;SDS011;32313;48.722;9.362;2023-04-24T02:36:18;4.27;;;3.70;;
46589;SDS011;32313;48.722;9.362;2023-04-24T02:38:44;3.73;;;3.43;;
46589;SDS011;32313;48.722;9.362;2023-04-24T02:41:11;3.70;;;3.40;;
46589;SDS011;32313;48.722;9.362;2023-04-24T02:43:37;3.90;;;3.70;;
46589;SDS011;32313;48.722;9.362;2023-04-24T02:46:02;3.43;;;3.23;;
46589;SDS011;32313;48.722;9.362;2023-04-24T02:48:28;3.60;;;3.40;;
46589;SDS011;32313;48.722;9.362;2023-04-24T02:50:54;3.50;;;3.30;;
46589;SDS011;32313;48.722;9.362;2023-04-24T02:53:19;3.50;;;3.30;;
46589;SDS011;32313;48.722;9.362;2023-04-24T02:55:45;3.70;;;3.50;;
46589;SDS011;32313;48.722;9.362;2023-04-24T02:58:11;3.87;;;3.43;;
46589;SDS011;32313;48.722;9.362;2023-04-24T03:00:38;3.60;;;3.30;;
46589;SDS011;32313;48.722;9.362;2023-04-24T03:03:04;4.37;;;3.83;;
46589;SDS011;32313;48.722;9.362;2023-04-24T03:05:30;3.83;;;3.63;;
46589;SDS011;32313;48.722;9.362;2023-04-24T03:07:56;3.57;;;3.37;;
46589;SDS011;32313;48.722;9.362;2023-04-24T03:10:22;3.43;;;3.20;;
46589;SDS011;32313;48.722;9.362;2023-04-24T03:12:48;4.40;;;4.03;;
46589;SDS011;32313;48.722;9.362;2023-04-24T03:15:14;5.27;;;3.83;;
46589;SDS011;32313;48.722;9.362;2023-04-24T03:17:40;4.03;;;3.80;;
46589;SDS011;32313;48.722;9.362;2023-04-24T03:20:06;3.63;;;3.33;;
46589;SDS011;32313;48.722;9.362;2023-04-24T03:22:34;3.33;;;3.10;;
46589;SDS011;32313;48.722;9.362;2023-04-24T03:25:02;4.33;;;3.93;;
46589;SDS011;32313;48.722;9.362;2023-04-24T03:27:29;3.43;;;3.20;;
46589;SDS011;32313;48.722;9.362;2023-04-24T03:29:59;3.67;;;3.47;;
46589;SDS011;32313;48.722;9.362;2023-04-24T03:32:46;3.40;;;3.20;;
46589;SDS011;32313;48.722;9.362;2023-04-24T03:35:15;3.73;;;3.43;;
46589;SDS011;32313;48.722;9.362;2023-04-24T03:37:40;3.87;;;3.57;;
46589;SDS011;32313;48.722;9.362;2023-04-24T03:40:26;3.63;;;3.43;;
46589;SDS011;32313;48.722;9.362;2023-04-24T03:42:55;3.80;;;3.00;;
46589;SDS011;32313;48.722;9.362;2023-04-24T03:45:20;3.80;;;3.60;;
46589;SDS011;32313;48.722;9.362;2023-04-24T03:47:49;3.07;;;2.87;;
46589;SDS011;32313;48.722;9.362;2023-04-24T03:50:15;3.37;;;3.17;;
46589;SDS011;32313;48.722;9.362;2023-04-24T03:52:42;3.90;;;3.57;;
46589;SDS011;32313;48.722;9.362;2023-04-24T03:55:09;3.50;;;3.20;;
46589;SDS011;32313;48.722;9.362;2023-04-24T03:57:42;3.60;;;3.40;;
46589;SDS011;32313;48.722;9.362;2023-04-24T04:00:16;3.70;;;3.40;;
46589;SDS011;32313;48.722;9.362;2023-04-24T04:02:48;3.87;;;3.67;;
46589;SDS011;32313;48.722;9.362;2023-04-24T04:05:13;3.63;;;3.30;;
46589;SDS011;32313;48.722;9.362;2023-04-24T04:07:40;3.67;;;3.47;;
46589;SDS011;32313;48.722;9.362;2023-04-24T04:10:07;3.67;;;3.30;;
46589;SDS011;32313;48.722;9.362;2023-04-24T04:12:36;3.60;;;3.30;;
46589;SDS011;32313;48.722;9.362;2023-04-24T04:15:01;3.50;;;3.20;;
46589;SDS011;32313;48.722;9.362;2023-04-24T04:17:28;3.40;;;3.20;;
46589;SDS011;32313;48.722;9.362;2023-04-24T04:19:54;3.20;;;2.90;;
46589;SDS011;32313;48.722;9.362;2023-04-24T04:22:21;3.80;;;3.50;;
46589;SDS011;32313;48.722;9.362;2023-04-24T04:24:49;3.40;;;3.10;;
46589;SDS011;32313;48.722;9.362;2023-04-24T04:27:19;3.87;;;3.57;;
46589;SDS011;32313;48.722;9.362;2023-04-24T04:30:04;3.07;;;2.87;;
46589;SDS011;32313;48.722;9.362;2023-04-24T04:32:37;3.20;;;3.00;;
46589;SDS011;32313;48.722;9.362;2023-04-24T04:35:03;4.90;;;3.10;;
46589;SDS011;32313;48.722;9.362;2023-04-24T04:37:32;3.17;;;3.03;;
46589;SDS011;32313;48.722;9.362;2023-04-24T04:40:08;2.90;;;2.80;;
46589;SDS011;32313;48.722;9.362;2023-04-24T04:42:45;3.13;;;2.93;;
46589;SDS011;32313;48.722;9.362;2023-04-24T04:45:13;3.90;;;3.10;;
46589;SDS011;32313;48.722;9.362;2023-04-24T04:48:01;3.00;;;2.80;;
46589;SDS011;32313;48.722;9.362;2023-04-24T04:50:28;5.27;;;3.00;;
46589;SDS011;32313;48.722;9.362;2023-04-24T04:53:00;4.13;;;3.43;;
46589;SDS011;32313;48.722;9.362;2023-04-24T04:55:31;3.20;;;2.90;;
46589;SDS011;32313;48.722;9.362;2023-04-24T04:58:12;3.73;;;3.43;;
46589;SDS011;32313;48.722;9.362;2023-04-24T05:00:38;4.43;;;3.63;;
46589;SDS011;32313;48.722;9.362;2023-04-24T05:03:26;4.17;;;3.87;;
46589;SDS011;32313;48.722;9.362;2023-04-24T05:06:03;4.33;;;3.90;;
46589;SDS011;32313;48.722;9.362;2023-04-24T05:08:33;4.10;;;3.80;;
46589;SDS011;32313;48.722;9.362;2023-04-24T05:10:58;4.13;;;3.83;;
46589;SDS011;32313;48.722;9.362;2023-04-24T05:13:27;4.03;;;3.67;;
46589;SDS011;32313;48.722;9.362;2023-04-24T05:15:53;4.40;;;4.10;;
46589;SDS011;32313;48.722;9.362;2023-04-24T05:18:19;4.70;;;4.40;;
46589;SDS011;32313;48.722;9.362;2023-04-24T05:20:45;4.93;;;4.53;;
46589;SDS011;32313;48.722;9.362;2023-04-24T05:23:11;5.43;;;5.03;;
46589;SDS011;32313;48.722;9.362;2023-04-24T05:25:40;5.10;;;4.70;;
46589;SDS011;32313;48.722;9.362;2023-04-24T05:28:10;4.73;;;4.40;;
46589;SDS011;32313;48.722;9.362;2023-04-24T05:30:35;5.27;;;4.80;;
46589;SDS011;32313;48.722;9.362;2023-04-24T05:33:01;6.77;;;4.70;;
46589;SDS011;32313;48.722;9.362;2023-04-24T05:35:28;5.53;;;5.03;;
46589;SDS011;32313;48.722;9.362;2023-04-24T05:37:54;6.47;;;5.37;;
46589;SDS011;32313;48.722;9.362;2023-04-24T05:40:20;6.50;;;5.17;;
46589;SDS011;32313;48.722;9.362;2023-04-24T05:42:47;5.77;;;5.17;;
46589;SDS011;32313;48.722;9.362;2023-04-24T05:45:12;5.60;;;5.20;;
46589;SDS011;32313;48.722;9.362;2023-04-24T05:47:41;5.57;;;5.27;;
46589;SDS011;32313;48.722;9.362;2023-04-24T05:50:10;6.53;;;6.03;;
46589;SDS011;32313;48.722;9.362;2023-04-24T05:52:36;5.07;;;4.73;;
46589;SDS011;32313;48.722;9.362;2023-04-24T05:55:10;5.50;;;5.10;;
46589;SDS011;32313;48.722;9.362;2023-04-24T05:57:38;5.73;;;5.33;;
46589;SDS011;32313;48.722;9.362;2023-04-24T06:00:05;5.80;;;5.30;;
46589;SDS011;32313;48.722;9.362;2023-04-24T06:02:49;5.83;;;5.33;;
46589;SDS011;32313;48.722;9.362;2023-04-24T06:05:15;5.37;;;4.87;;
46589;SDS011;32313;48.722;9.362;2023-04-24T06:07:40;6.30;;;5.00;;
46589;SDS011;32313;48.722;9.362;2023-04-24T06:10:07;5.53;;;5.13;;
46589;SDS011;32313;48.722;9.362;2023-04-24T06:12:39;6.23;;;5.30;;
46589;SDS011;32313;48.722;9.362;2023-04-24T06:15:10;5.83;;;5.40;;
46589;SDS011;32313;48.722;9.362;2023-04-24T06:17:55;5.53;;;4.80;;
46589;SDS011;32313;48.722;9.362;2023-04-24T06:20:21;5.27;;;4.90;;
46589;SDS011;32313;48.722;9.362;2023-04-24T06:22:47;5.70;;;5.30;;
46589;SDS011;32313;48.722;9.362;2023-04-24T06:25:13;6.17;;;5.40;;
46589;SDS011;32313;48.722;9.362;2023-04-24T06:27:39;5.20;;;4.80;;
46589;SDS011;32313;48.722;9.362;2023-04-24T06:30:07;5.50;;;5.00;;
46589;SDS011;32313;48.722;9.362;2023-04-24T06:32:33;6.67;;;6.07;;
46589;SDS011;32313;48.722;9.362;2023-04-24T06:34:58;6.77;;;6.17;;
46589;SDS011;32313;48.722;9.362;2023-04-24T06:37:24;6.30;;;5.70;;
46589;SDS011;32313;48.722;9.362;2023-04-24T06:39:50;7.23;;;6.57;;
46589;SDS011;32313;48.722;9.362;2023-04-24T06:42:16;6.87;;;6.27;;
46589;SDS011;32313;48.722;9.362;2023-04-24T06:44:43;6.70;;;6.10;;
46589;SDS011;32313;48.722;9.362;2023-04-24T06:47:09;6.00;;;5.50;;
46589;SDS011;32313;48.722;9.362;2023-04-24T06:49:36;5.60;;;5.10;;
46589;SDS011;32313;48.722;9.362;2023-04-24T06:52:02;5.37;;;4.83;;
46589;SDS011;32313;48.722;9.362;2023-04-24T06:54:28;5.20;;;4.80;;
46589;SDS011;32313;48.722;9.362;2023-04-24T06:56:54;4.87;;;4.37;;
46589;SDS011;32313;48.722;9.362;2023-04-24T06:59:22;3.60;;;3.30;;
46589;SDS011;32313;48.722;9.362;2023-04-24T07:01:48;3.77;;;3.40;;
46589;SDS011;32313;48.722;9.362;2023-04-24T07:04:14;3.37;;;3.17;;
46589;SDS011;32313;48.722;9.362;2023-04-24T07:06:40;3.20;;;3.00;;
46589;SDS011;32313;48.722;9.362;2023-04-24T07:09:06;3.27;;;2.93;;
46589;SDS011;32313;48.722;9.362;2023-04-24T07:11:34;3.73;;;2.80;;
46589;SDS011;32313;48.722;9.362;2023-04-24T07:14:01;2.50;;;2.23;;
46589;SDS011;32313;48.722;9.362;2023-04-24T07:16:27;2.73;;;2.53;;
46589;SDS011;32313;48.722;9.362;2023-04-24T07:18:53;2.80;;;2.60;;
46589;SDS011;32313;48.722;9.362;2023-04-24T07:21:19;2.50;;;2.30;;
46589;SDS011;32313;48.722;9.362;2023-04-24T07:23:44;4.23;;;3.27;;
46589;SDS011;32313;48.722;9.362;2023-04-24T07:26:10;3.50;;;3.03;;
46589;SDS011;32313;48.722;9.362;2023-04-24T07:28:36;3.03;;;2.70;;
46589;SDS011;32313;48.722;9.362;2023-04-24T07:31:01;4.13;;;2.67;;
46589;SDS011;32313;48.722;9.362;2023-04-24T07:33:27;3.50;;;3.20;;
46589;SDS011;32313;48.722;9.362;2023-04-24T07:35:53;3.47;;;3.17;;
46589;SDS011;32313;48.722;9.362;2023-04-24T07:38:19;3.33;;;3.00;;
46589;SDS011;32313;48.722;9.362;2023-04-24T07:40:47;3.30;;;3.00;;
46589;SDS011;32313;48.722;9.362;2023-04-24T07:43:13;3.77;;;3.47;;
46589;SDS011;32313;48.722;9.362;2023-04-24T07:45:39;3.70;;;3.47;;
46589;SDS011;32313;48.722;9.362;2023-04-24T07:48:05;3.20;;;2.90;;
46589;SDS011;32313;48.722;9.362;2023-04-24T07:50:31;3.47;;;3.27;;
46589;SDS011;32313;48.722;9.362;2023-04-24T07:52:57;3.63;;;3.43;;
46589;SDS011;32313;48.722;9.362;2023-04-24T07:55:23;3.37;;;3.07;;
46589;SDS011;32313;48.722;9.362;2023-04-24T07:57:49;3.67;;;3.37;;
46589;SDS011;32313;48.722;9.362;2023-04-24T08:00:15;3.13;;;2.93;;
46589;SDS011;32313;48.722;9.362;2023-04-24T08:02:41;2.73;;;2.53;;
46589;SDS011;32313;48.722;9.362;2023-04-24T08:05:06;3.07;;;2.87;;
46589;SDS011;32313;48.722;9.362;2023-04-24T08:07:32;2.93;;;2.30;;
46589;SDS011;32313;48.722;9.362;2023-04-24T08:09:58;2.70;;;2.50;;
46589;SDS011;32313;48.722;9.362;2023-04-24T08:12:24;2.23;;;2.10;;
46589;SDS011;32313;48.722;9.362;2023-04-24T08:14:50;2.13;;;2.03;;
46589;SDS011;32313;48.722;9.362;2023-04-24T08:17:16;1.87;;;1.77;;
46589;SDS011;32313;48.722;9.362;2023-04-24T08:19:42;2.40;;;2.20;;
46589;SDS011;32313;48.722;9.362;2023-04-24T08:22:12;1.90;;;1.80;;
46589;SDS011;32313;48.722;9.362;2023-04-24T08:24:38;1.80;;;1.70;;
46589;SDS011;32313;48.722;9.362;2023-04-24T08:27:04;3.13;;;1.90;;
46589;SDS011;32313;48.722;9.362;2023-04-24T08:29:30;2.77;;;2.13;;
46589;SDS011;32313;48.722;9.362;2023-04-24T08:31:55;1.87;;;1.77;;
46589;SDS011;32313;48.722;9.362;2023-04-24T08:34:21;2.40;;;2.17;;
46589;SDS011;32313;48.722;9.362;2023-04-24T08:36:47;2.77;;;1.90;;
46589;SDS011;32313;48.722;9.362;2023-04-24T08:39:13;2.23;;;2.03;;
46589;SDS011;32313;48.722;9.362;2023-04-24T08:41:41;2.00;;;1.90;;
46589;SDS011;32313;48.722;9.362;2023-04-24T08:44:11;2.90;;;2.47;;
46589;SDS011;32313;48.722;9.362;2023-04-24T08:46:39;2.37;;;2.20;;
46589;SDS011;32313;48.722;9.362;2023-04-24T08:49:05;4.57;;;2.70;;
46589;SDS011;32313;48.722;9.362;2023-04-24T08:51:31;4.63;;;2.70;;
46589;SDS011;32313;48.722;9.362;2023-04-24T08:53:57;2.40;;;2.20;;
46589;SDS011;32313;48.722;9.362;2023-04-24T08:56:23;4.80;;;2.13;;
46589;SDS011;32313;48.722;9.362;2023-04-24T08:58:50;2.40;;;2.20;;
46589;SDS011;32313;48.722;9.362;2023-04-24T09:01:17;2.20;;;2.00;;
46589;SDS011;32313;48.722;9.362;2023-04-24T09:03:48;2.37;;;2.20;;
46589;SDS011;32313;48.722;9.362;2023-04-24T09:06:16;2.93;;;2.20;;
46589;SDS011;32313;48.722;9.362;2023-04-24T09:08:42;2.10;;;2.00;;
46589;SDS011;32313;48.722;9.362;2023-04-24T09:11:10;2.33;;;2.10;;
46589;SDS011;32313;48.722;9.362;2023-04-24T09:13:37;2.47;;;2.20;;
46589;SDS011;32313;48.722;9.362;2023-04-24T09:16:03;2.40;;;2.20;;
46589;SDS011;32313;48.722;9.362;2023-04-24T09:18:29;2.17;;;2.00;;
46589;SDS011;32313;48.722;9.362;2023-04-24T09:21:01;4.03;;;2.60;;
46589;SDS011;32313;48.722;9.362;2023-04-24T09:23:29;2.43;;;2.23;;
46589;SDS011;32313;48.722;9.362;2023-04-24T09:25:56;2.60;;;2.40;;
46589;SDS011;32313;48.722;9.362;2023-04-24T09:28:29;2.53;;;2.33;;
46589;SDS011;32313;48.722;9.362;2023-04-24T09:31:06;3.13;;;2.50;;
46589;SDS011;32313;48.722;9.362;2023-04-24T09:34:03;3.33;;;3.03;;
46589;SDS011;32313;48.722;9.362;2023-04-24T09:36:34;2.60;;;2.40;;
46589;SDS011;32313;48.722;9.362;2023-04-24T09:39:08;2.40;;;2.07;;
46589;SDS011;32313;48.722;9.362;2023-04-24T09:44:16;2.67;;;2.37;;
46589;SDS011;32313;48.722;9.362;2023-04-24T09:46:50;3.53;;;2.40;;
46589;SDS011;32313;48.722;9.362;2023-04-24T09:49:27;5.20;;;2.40;;
46589;SDS011;32313;48.722;9.362;2023-04-24T09:52:03;3.50;;;2.60;;
46589;SDS011;32313;48.722;9.362;2023-04-24T09:54:30;3.07;;;2.77;;
46589;SDS011;32313;48.722;9.362;2023-04-24T09:56:56;2.87;;;2.67;;
46589;SDS011;32313;48.722;9.362;2023-04-24T09:59:22;2.90;;;2.70;;
46589;SDS011;32313;48.722;9.362;2023-04-24T10:01:48;3.57;;;2.50;;
46589;SDS011;32313;48.722;9.362;2023-04-24T10:04:21;2.50;;;2.30;;
46589;SDS011;32313;48.722;9.362;2023-04-24T10:06:49;2.40;;;1.90;;
46589;SDS011;32313;48.722;9.362;2023-04-24T10:09:16;1.80;;;1.70;;
46589;SDS011;32313;48.722;9.362;2023-04-24T10:11:44;1.73;;;1.63;;
46589;SDS011;32313;48.722;9.362;2023-04-24T10:14:13;1.73;;;1.63;;
46589;SDS011;32313;48.722;9.362;2023-04-24T10:16:40;2.07;;;1.60;;
46589;SDS011;32313;48.722;9.362;2023-04-24T10:19:06;1.63;;;1.53;;
46589;SDS011;32313;48.722;9.362;2023-04-24T10:21:33;1.97;;;1.70;;
46589;SDS011;32313;48.722;9.362;2023-04-24T10:24:00;2.33;;;1.63;;
46589;SDS011;32313;48.722;9.362;2023-04-24T10:26:28;2.37;;;1.90;;
46589;SDS011;32313;48.722;9.362;2023-04-24T10:28:54;2.10;;;1.90;;
46589;SDS011;32313;48.722;9.362;2023-04-24T10:31:23;2.50;;;1.77;;
46589;SDS011;32313;48.722;9.362;2023-04-24T10:33:50;2.17;;;1.97;;
46589;SDS011;32313;48.722;9.362;2023-04-24T10:36:17;2.30;;;1.70;;
46589;SDS011;32313;48.722;9.362;2023-04-24T10:38:44;2.20;;;1.73;;
46589;SDS011;32313;48.722;9.362;2023-04-24T10:41:11;1.90;;;1.80;;
46589;SDS011;32313;48.722;9.362;2023-04-24T10:43:48;1.80;;;1.70;;
46589;SDS011;32313;48.722;9.362;2023-04-24T10:46:33;1.97;;;1.80;;
46589;SDS011;32313;48.722;9.362;2023-04-24T10:48:59;2.27;;;1.50;;
46589;SDS011;32313;48.722;9.362;2023-04-24T10:59:48;1.45;;;1.35;;
46589;SDS011;32313;48.722;9.362;2023-04-24T11:02:15;1.60;;;1.50;;
46589;SDS011;32313;48.722;9.362;2023-04-24T11:04:42;1.57;;;1.43;;
46589;SDS011;32313;48.722;9.362;2023-04-24T11:07:11;1.43;;;1.33;;
46589;SDS011;32313;48.722;9.362;2023-04-24T11:09:37;2.57;;;1.70;;
46589;SDS011;32313;48.722;9.362;2023-04-24T11:12:09;1.50;;;1.40;;
46589;SDS011;32313;48.722;9.362;2023-04-24T11:22:32;2.23;;;2.03;;
46589;SDS011;32313;48.722;9.362;2023-04-24T11:25:03;2.20;;;2.10;;
46589;SDS011;32313;48.722;9.362;2023-04-24T11:27:31;2.50;;;2.30;;
46589;SDS011;32313;48.722;9.362;2023-04-24T11:30:03;2.60;;;2.40;;
46589;SDS011;32313;48.722;9.362;2023-04-24T11:32:30;2.63;;;2.43;;
46589;SDS011;32313;48.722;9.362;2023-04-24T11:35:08;2.77;;;2.57;;
46589;SDS011;32313;48.722;9.362;2023-04-24T11:37:46;3.00;;;2.23;;
46589;SDS011;32313;48.722;9.362;2023-04-24T11:40:14;2.87;;;2.37;;
46589;SDS011;32313;48.722;9.362;2023-04-24T11:42:44;2.93;;;2.73;;
46589;SDS011;32313;48.722;9.362;2023-04-24T11:45:20;2.97;;;2.77;;
46589;SDS011;32313;48.722;9.362;2023-04-24T11:47:47;3.33;;;2.90;;
46589;SDS011;32313;48.722;9.362;2023-04-24T11:50:14;2.83;;;2.60;;
46589;SDS011;32313;48.722;9.362;2023-04-24T11:52:42;4.07;;;2.20;;
46589;SDS011;32313;48.722;9.362;2023-04-24T11:57:51;2.90;;;2.70;;
46589;SDS011;32313;48.722;9.362;2023-04-24T12:00:25;2.77;;;2.57;;
46589;SDS011;32313;48.722;9.362;2023-04-24T12:03:03;2.60;;;2.40;;
46589;SDS011;32313;48.722;9.362;2023-04-24T12:05:38;2.70;;;2.50;;
46589;SDS011;32313;48.722;9.362;2023-04-24T12:08:05;2.50;;;2.40;;
46589;SDS011;32313;48.722;9.362;2023-04-24T12:10:31;2.77;;;2.57;;
46589;SDS011;32313;48.722;9.362;2023-04-24T12:12:58;3.17;;;2.87;;
46589;SDS011;32313;48.722;9.362;2023-04-24T12:15:25;2.80;;;2.60;;
46589;SDS011;32313;48.722;9.362;2023-04-24T12:17:52;2.80;;;2.60;;
46589;SDS011;32313;48.722;9.362;2023-04-24T12:20:29;2.50;;;2.30;;
46589;SDS011;32313;48.722;9.362;2023-04-24T12:22:57;2.57;;;2.37;;
46589;SDS011;32313;48.722;9.362;2023-04-24T12:25:25;3.57;;;2.53;;
46589;SDS011;32313;48.722;9.362;2023-04-24T12:30:31;2.30;;;2.10;;
46589;SDS011;32313;48.722;9.362;2023-04-24T12:32:58;2.10;;;2.00;;
46589;SDS011;32313;48.722;9.362;2023-04-24T12:35:26;2.93;;;2.50;;
46589;SDS011;32313;48.722;9.362;2023-04-24T12:37:53;2.70;;;2.60;;
46589;SDS011;32313;48.722;9.362;2023-04-24T12:40:20;2.40;;;2.20;;
46589;SDS011;32313;48.722;9.362;2023-04-24T12:42:50;2.43;;;2.30;;
46589;SDS011;32313;48.722;9.362;2023-04-24T12:45:17;2.87;;;2.60;;
46589;SDS011;32313;48.722;9.362;2023-04-24T12:47:44;3.00;;;2.67;;
46589;SDS011;32313;48.722;9.362;2023-04-24T12:50:11;2.80;;;2.60;;
46589;SDS011;32313;48.722;9.362;2023-04-24T12:52:38;2.83;;;2.63;;
46589;SDS011;32313;48.722;9.362;2023-04-24T12:55:05;3.73;;;2.87;;
46589;SDS011;32313;48.722;9.362;2023-04-24T12:57:35;3.73;;;3.00;;
46589;SDS011;32313;48.722;9.362;2023-04-24T13:00:02;2.30;;;2.10;;
46589;SDS011;32313;48.722;9.362;2023-04-24T13:02:29;2.60;;;2.40;;
46589;SDS011;32313;48.722;9.362;2023-04-24T13:04:56;2.43;;;2.33;;
46589;SDS011;32313;48.722;9.362;2023-04-24T13:07:23;2.70;;;2.57;;
46589;SDS011;32313;48.722;9.362;2023-04-24T13:09:50;2.33;;;2.13;;
46589;SDS011;32313;48.722;9.362;2023-04-24T13:12:16;2.63;;;2.43;;
46589;SDS011;32313;48.722;9.362;2023-04-24T13:14:42;2.17;;;2.07;;
46589;SDS011;32313;48.722;9.362;2023-04-24T13:17:08;2.40;;;2.20;;
46589;SDS011;32313;48.722;9.362;2023-04-24T13:19:38;2.87;;;2.67;;
46589;SDS011;32313;48.722;9.362;2023-04-24T13:22:06;2.90;;;2.70;;
46589;SDS011;32313;48.722;9.362;2023-04-24T13:24:35;2.50;;;2.40;;
46589;SDS011;32313;48.722;9.362;2023-04-24T13:27:00;3.03;;;2.83;;
46589;SDS011;32313;48.722;9.362;2023-04-24T13:29:27;2.93;;;2.80;;
46589;SDS011;32313;48.722;9.362;2023-04-24T13:31:53;2.70;;;2.50;;
46589;SDS011;32313;48.722;9.362;2023-04-24T13:34:20;2.87;;;2.70;;
46589;SDS011;32313;48.722;9.362;2023-04-24T13:36:48;3.20;;;2.90;;
46589;SDS011;32313;48.722;9.362;2023-04-24T13:39:18;3.00;;;2.70;;
46589;SDS011;32313;48.722;9.362;2023-04-24T13:41:43;3.60;;;3.20;;
46589;SDS011;32313;48.722;9.362;2023-04-24T13:44:10;3.20;;;2.80;;
46589;SDS011;32313;48.722;9.362;2023-04-24T13:46:36;3.00;;;2.80;;
46589;SDS011;32313;48.722;9.362;2023-04-24T13:49:02;3.50;;;3.20;;
46589;SDS011;32313;48.722;9.362;2023-04-24T13:51:29;3.90;;;3.50;;
46589;SDS011;32313;48.722;9.362;2023-04-24T13:53:55;3.30;;;3.03;;
46589;SDS011;32313;48.722;9.362;2023-04-24T13:56:21;2.83;;;2.40;;
46589;SDS011;32313;48.722;9.362;2023-04-24T13:58:47;2.80;;;2.60;;
46589;SDS011;32313;48.722;9.362;2023-04-24T14:01:13;3.30;;;2.63;;
46589;SDS011;32313;48.722;9.362;2023-04-24T14:03:40;2.93;;;2.50;;
46589;SDS011;32313;48.722;9.362;2023-04-24T14:06:08;2.80;;;2.60;;
46589;SDS011;32313;48.722;9.362;2023-04-24T14:08:34;2.90;;;2.70;;
46589;SDS011;32313;48.722;9.362;2023-04-24T14:10:59;3.10;;;2.80;;
46589;SDS011;32313;48.722;9.362;2023-04-24T14:13:25;3.17;;;2.97;;
46589;SDS011;32313;48.722;9.362;2023-04-24T14:15:51;3.20;;;3.00;;
46589;SDS011;32313;48.722;9.362;2023-04-24T14:18:17;2.97;;;2.77;;
46589;SDS011;32313;48.722;9.362;2023-04-24T14:20:43;2.73;;;2.57;;
46589;SDS011;32313;48.722;9.362;2023-04-24T14:23:09;3.10;;;2.90;;
46589;SDS011;32313;48.722;9.362;2023-04-24T14:25:35;3.57;;;3.10;;
46589;SDS011;32313;48.722;9.362;2023-04-24T14:28:01;2.90;;;2.70;;
46589;SDS011;32313;48.722;9.362;2023-04-24T14:30:27;3.10;;;2.80;;
46589;SDS011;32313;48.722;9.362;2023-04-24T14:32:52;2.87;;;2.77;;
46589;SDS011;32313;48.722;9.362;2023-04-24T14:35:18;3.03;;;2.87;;
46589;SDS011;32313;48.722;9.362;2023-04-24T14:37:44;3.10;;;2.90;;
46589;SDS011;32313;48.722;9.362;2023-04-24T14:40:10;3.00;;;2.80;;
46589;SDS011;32313;48.722;9.362;2023-04-24T14:42:36;2.83;;;2.63;;
46589;SDS011;32313;48.722;9.362;2023-04-24T14:45:02;3.90;;;2.90;;
46589;SDS011;32313;48.722;9.362;2023-04-24T14:47:27;3.07;;;2.87;;
46589;SDS011;32313;48.722;9.362;2023-04-24T14:49:54;4.13;;;3.17;;
46589;SDS011;32313;48.722;9.362;2023-04-24T14:52:20;3.93;;;3.20;;
46589;SDS011;32313;48.722;9.362;2023-04-24T14:54:45;3.23;;;2.87;;
46589;SDS011;32313;48.722;9.362;2023-04-24T14:57:11;3.40;;;3.20;;
46589;SDS011;32313;48.722;9.362;2023-04-24T14:59:37;3.63;;;3.43;;
46589;SDS011;32313;48.722;9.362;2023-04-24T15:02:03;3.30;;;3.10;;
46589;SDS011;32313;48.722;9.362;2023-04-24T15:04:29;3.30;;;3.10;;
46589;SDS011;32313;48.722;9.362;2023-04-24T15:06:56;3.40;;;3.20;;
46589;SDS011;32313;48.722;9.362;2023-04-24T15:09:22;3.60;;;3.40;;
46589;SDS011;32313;48.722;9.362;2023-04-24T15:11:49;3.87;;;3.57;;
46589;SDS011;32313;48.722;9.362;2023-04-24T15:14:16;3.60;;;3.40;;